Metar z połowy godziny Komunikat METAR ze strony awiacja.imgw.pl Metar G30 EPSN METAR EPSN 240430Z 22006KT CAVOK 07/04 Q1012 RMK 067 080 3/1=